Disclaimer

Please do not use the information listed here in-flight or in-navigation, as they are not provided to us by the airports but are provided by volunteers, so they might be outdated.

Search


Regions


Airport information page

Radio informations:
Tower (TWR) - 118.0 MHz
Approach (APP) - 119.7 MHz

Airport informations:
Latitude: 62° 23' 58.03" N
Longitude: 025° 40' 41.71" E
Elevation: 459 feet - 140 meters
Operating hours: N/A
Operating agency: Civil government, landing fees and diplomatic clearance may be required
Timezone: UTC+2(+3DT)
Fuel: Jet A1, without icing nhibitor.

100/130 MIL Spec, low lead, aviation gasoline (BLUE)

Runway information:
12/30 - 8533 x 197 feet< - >2601 x 60 meters

Recent METARs:
EFJY 211920Z AUTO 30010KT 9999 OVC009 M01/M02 Q1024
EFJY 211950Z AUTO 29009KT 9999 OVC010 00/M02 Q1024
EFJY 212020Z AUTO 29010KT 9999 BKN009 00/M02 Q1023

Airport on the map: